Aérodrome :
LOGIN :

S'inscrire | Disclaimer

   EN    FR    IT 

 










Légende :    VFR   VFR Marginal   IFR   IFR Intensif   IFR Très Intensif
Visi : 
Plafond : 
>= 8 km
>= 3000ft
5 à 8 km
1000 à 3000 ft
1500m à 5 km
500 à 1000 ft
800 à 1500m
200 à 500 ft
< 800m
< 200 ft
Symboles :   Orages  Brouillard  Fortes neiges  Fortes précipitations  Vent > 20 kt
SIGMETs :   Divers  Orages  Givrage  Turbulence  Onde Orograph.  Cendres Volcan.






- Altitude de l'aérodrome : 87 ft
- Code IATA : FSC


LFKF - Figari

DERNIER METAR :
  • 301430Z AUTO 20006KT 160V250 9999 FEW028/// ///TCU 17/10 Q1012 BECMG FEW045

METARs EXPIRÉS :
  • 301400Z AUTO 21009KT 180V250 9999 FEW047/// ///CB 18/10 Q1012 BECMG NSC
  • 301330Z AUTO 21009KT 180V240 9999 ///CB 18/10 Q1012 BECMG NSC
  • 301300Z AUTO 21011KT 9999 ///CB 18/09 Q1012 NOSIG

TAF TAF LFKF
Valide du 30 à 15h jusqu'au 31 à 15h UTC


301400Z 3015/3115 21010KT 9999 FEW045
BECMG 3017/3019 04003KT
PROB40
TEMPO 3100/3106 BKN010
BECMG 3107/3108 07013KT
TEMPO 3109/3115 SHRA SCT017TCU



MET'MAP, la Météo Aéronautique d'un coup d'oeil ! - Copyright ORBIFLY Décembre 2007 - Disclaimer

ORBIFLY MET'MAP TEAM :

Programmation & Développement : Alexandra Zaïnal
Sur une idée originale de : Baudouin d'Aumeries
Assistance à la programmation : Marc-Olivier Méhu
Soutien technique & logistique : Manuel Goepfert

Contact : metmap@orbifly.com




SOURCES & CREDITS :

   NOAA